map of KIM home
KIM - Airport
Location
City:  Kimberley, Northern Cape, South Africa
Name:Kimberley Airport
ICAO:FAKM
IATA:KIM

Details
Type:Airport (Aerodrome, Airfield)
Use:Public/Civil
Latitude:2848'10"S (-28.802833)
Longitude:2445'55"E (24.765167)
Datum:WGS 1984
Elevation:3950 ft (1204 m)
Variation:21.56W (WMM2015 magnetic declination)
-0.11 annual change
Runways:2
Longest:9843 × 150 ft (3000 × 45.5 m), paved

Time
Time Zone:UTC+2
Local Time:

Weather
METAR:FAKM 191300Z 32015KT 9999 SCT060 FEW070CB SCT100 36/03 Q1012

Related Locations
Nearby:
Farthest:HPV: 11909 mi / 19166 km
Hanalei [Princeville Airport], Kauai, HI, US

Find:

   beyond  
but within

Other Information
Maps:
NOTAMs:
Links:
Sources:

  
  • flag of South Africa
  • flag of Northern Cape
  

Sectional Chart

Flight Planning
at skyvector.com

Satellite Image

Google Maps Satellite view

 

Copyright © 2004-2018 Karl L. Swartz. All rights reserved.
The Great Circle Mapper name and logo are trademarks of the Great Circle Mapper.
All other trademarks mentioned herein belong to their respective owners.
Please see credits for attibutions and further copyright information.

  Follow gcmap on Facebook Follow gcmap on Twitter Follow gcmap on Google+ GCmap on LinkedIn

hCard Microformat

Geo Microformat